Terminal Aerodrome Forecast
Issued by NWS North Platte, NE

Current Version | Previous Version | Text Only | Print | Product List | Glossary On
Versions: 1 2 3 4 5 6 7 8 9 10 11 12 13
727
FTUS43 KLBF 291120
TAFVTN
TAF
KVTN 291120Z 2912/3012 17006KT P6SM SKC
     FM291700 16012G18KT P6SM SKC
     FM300000 14008KT P6SM SKC=

USA.gov is the U.S. government's official web portal to all federal, state and local government web resources and services.